Sao Jose Dos Quatro Marcos, Brazil
Current Conditions -  °F | °C
As of 3:00 AM on Saturday 25 Oct 2014 (Local Time) from SBCY Reporting Station
Light Rain Light Rain  
Wind Chill: 73°   Ceiling: 1500
Heat Index: 73°   Visibility: 6mi
Dew Point: 70°   Wind: 8mph
Humidity: 88%   Direction: 30°NNE
Pressure: 29.85"   Gusts: NA
Location:  15.63°S, 58.19°W
Report Text: SBCY 250600Z 03007KT 9999 -RA BKN015 23/21 Q1011
Loading
Personal Weather Stations






























Interactive Weather Map
Tropical Storm Tracking
New forecast layout! Learn more

10-Day Weather Forecast

Advertisements
Track Severe Weather on mobile